createdAt,value
2022-12-25T00:00:16.681Z,2.70
2022-12-25T00:03:07.989Z,5.40
2022-12-25T00:05:39.750Z,1.65
2022-12-25T00:08:26.375Z,3.28
2022-12-25T00:11:16.046Z,3.38
2022-12-25T00:13:45.128Z,3.85
2022-12-25T00:16:24.731Z,3.90
2022-12-25T00:19:11.369Z,1.90
2022-12-25T00:21:39.754Z,3.45
2022-12-25T00:24:08.183Z,4.15
2022-12-25T00:26:36.454Z,4.00
2022-12-25T00:29:23.206Z,5.25
2022-12-25T00:31:51.612Z,7.82
2022-12-25T00:34:19.941Z,6.65
2022-12-25T00:36:51.434Z,5.05
2022-12-25T00:39:19.922Z,6.18
2022-12-25T00:42:06.774Z,2.25
2022-12-25T00:44:35.497Z,4.03
2022-12-25T00:47:04.370Z,4.70
2022-12-25T00:49:32.746Z,2.53
2022-12-25T00:52:19.308Z,3.17
2022-12-25T00:54:47.548Z,4.88
2022-12-25T00:57:34.494Z,4.82
2022-12-25T01:00:21.314Z,4.10
2022-12-25T01:03:07.932Z,4.07
2022-12-25T01:05:36.280Z,5.53
2022-12-25T01:08:04.872Z,6.80
2022-12-25T01:10:59.505Z,4.15
2022-12-25T01:13:31.951Z,7.22
2022-12-25T01:18:46.987Z,7.93
2022-12-25T01:21:35.972Z,6.03
2022-12-25T01:24:04.245Z,3.10
2022-12-25T01:26:51.325Z,4.00
2022-12-25T01:29:19.476Z,7.57
2022-12-25T01:31:47.969Z,2.75
2022-12-25T01:34:16.418Z,5.72
2022-12-25T01:36:44.566Z,9.38
2022-12-25T01:39:12.729Z,8.80
2022-12-25T01:41:40.971Z,9.70
2022-12-25T01:44:54.939Z,4.70
2022-12-25T01:47:41.863Z,7.78
2022-12-25T01:50:10.093Z,8.98
2022-12-25T01:52:38.532Z,11.60
2022-12-25T01:55:11.720Z,6.95
2022-12-25T01:57:41.064Z,7.07
2022-12-25T02:00:11.713Z,9.00
2022-12-25T02:02:42.402Z,5.75
2022-12-25T02:05:21.723Z,7.50
2022-12-25T02:08:10.425Z,9.02
2022-12-25T02:10:39.582Z,8.57
2022-12-25T02:13:08.584Z,12.75
2022-12-25T02:15:55.917Z,8.40
2022-12-25T02:22:20.474Z,3.75
2022-12-25T02:25:21.571Z,7.15
2022-12-25T02:27:52.708Z,3.47
2022-12-25T02:30:46.820Z,8.77
2022-12-25T02:34:04.854Z,4.75
2022-12-25T02:36:51.069Z,7.38
2022-12-25T02:40:00.789Z,3.95
2022-12-25T02:43:07.155Z,7.15
2022-12-25T02:46:17.904Z,6.38
2022-12-25T02:49:10.869Z,10.68
2022-12-25T02:52:03.142Z,8.20
2022-12-25T02:54:53.824Z,5.80
2022-12-25T02:57:44.007Z,8.90
2022-12-25T03:00:53.677Z,5.03
2022-12-25T03:03:44.244Z,10.38
2022-12-25T03:06:32.855Z,5.57
2022-12-25T03:09:44.529Z,4.18
2022-12-25T03:12:35.969Z,7.95
2022-12-25T03:15:42.001Z,7.30
2022-12-25T03:18:15.756Z,6.47
2022-12-25T03:21:02.669Z,5.80
2022-12-25T03:23:53.666Z,7.22
2022-12-25T03:26:40.938Z,5.07
2022-12-25T03:29:09.300Z,7.43
2022-12-25T03:31:46.691Z,6.00
2022-12-25T03:34:48.419Z,11.25
2022-12-25T03:37:40.998Z,6.00
2022-12-25T03:40:53.516Z,6.68
2022-12-25T03:44:06.981Z,6.68
2022-12-25T03:47:00.306Z,4.20
2022-12-25T03:49:56.260Z,5.30
2022-12-25T03:52:45.104Z,6.60
2022-12-25T03:55:33.392Z,8.23
2022-12-25T03:58:20.253Z,5.38
2022-12-25T04:01:07.203Z,8.93
2022-12-25T04:03:54.317Z,7.47
2022-12-25T04:06:41.328Z,10.07
2022-12-25T04:09:28.186Z,6.43
2022-12-25T04:12:33.933Z,4.88
2022-12-25T04:15:39.164Z,11.02
2022-12-25T04:21:29.787Z,9.50
2022-12-25T04:24:16.363Z,9.70
2022-12-25T04:27:03.361Z,8.48
2022-12-25T04:29:50.034Z,6.93
2022-12-25T04:32:38.981Z,12.00
2022-12-25T04:35:28.876Z,12.68
2022-12-25T04:37:57.644Z,7.03
2022-12-25T04:40:25.905Z,6.68
2022-12-25T04:42:54.209Z,11.05
2022-12-25T04:45:22.586Z,8.50
2022-12-25T04:47:51.078Z,8.38
2022-12-25T04:50:37.517Z,7.03
2022-12-25T04:53:05.613Z,10.98
2022-12-25T04:55:33.869Z,10.43
2022-12-25T04:58:02.931Z,9.00
2022-12-25T05:00:49.555Z,11.10
2022-12-25T05:03:17.979Z,13.68
2022-12-25T05:06:05.451Z,7.75
2022-12-25T05:08:35.052Z,11.35
2022-12-25T05:11:22.827Z,13.52
2022-12-25T05:13:51.184Z,6.90
2022-12-25T05:16:38.252Z,8.35
2022-12-25T05:19:25.348Z,10.25
2022-12-25T05:22:11.930Z,19.25
2022-12-25T05:24:40.168Z,15.15
2022-12-25T05:27:26.896Z,8.50
2022-12-25T05:29:55.179Z,8.70
2022-12-25T05:32:23.448Z,8.98
2022-12-25T05:34:51.701Z,12.18
2022-12-25T05:37:19.876Z,8.60
2022-12-25T05:39:47.871Z,12.25
2022-12-25T05:45:01.828Z,10.65
2022-12-25T05:47:30.645Z,8.27
2022-12-25T05:49:59.645Z,7.28
2022-12-25T05:52:34.910Z,9.65
2022-12-25T05:55:03.604Z,8.55
2022-12-25T05:57:32.474Z,9.30
2022-12-25T06:00:00.541Z,10.95
2022-12-25T06:02:28.886Z,9.98
2022-12-25T06:04:57.115Z,9.75
2022-12-25T06:07:25.327Z,11.32
2022-12-25T06:09:53.418Z,7.55
2022-12-25T06:12:21.573Z,10.85
2022-12-25T06:14:50.003Z,11.18
2022-12-25T06:17:18.173Z,7.82
2022-12-25T06:19:46.164Z,12.75
2022-12-25T06:22:14.274Z,12.82
2022-12-25T06:24:42.496Z,11.55
2022-12-25T06:27:10.620Z,10.95
2022-12-25T06:29:38.713Z,21.15
2022-12-25T06:34:52.516Z,10.63
2022-12-25T06:37:20.702Z,8.13
2022-12-25T06:39:49.571Z,8.80
2022-12-25T06:42:17.600Z,12.07
2022-12-25T06:44:45.773Z,10.35
2022-12-25T06:47:13.997Z,12.35
2022-12-25T06:49:42.097Z,9.00
2022-12-25T06:52:10.303Z,12.10
2022-12-25T06:54:38.446Z,8.52
2022-12-25T06:57:06.542Z,13.15
2022-12-25T06:59:34.609Z,8.43
2022-12-25T07:02:03.442Z,8.15
2022-12-25T07:04:41.163Z,6.45
2022-12-25T07:07:10.044Z,16.50
2022-12-25T07:09:42.738Z,5.15
2022-12-25T07:12:13.924Z,6.32
2022-12-25T07:14:42.232Z,8.93
2022-12-25T07:17:10.348Z,13.18
2022-12-25T07:19:44.439Z,6.07
2022-12-25T07:22:13.873Z,6.80
2022-12-25T07:24:42.029Z,14.80
2022-12-25T07:27:10.281Z,12.43
2022-12-25T07:29:38.386Z,13.07
2022-12-25T07:32:07.350Z,5.30
2022-12-25T07:34:54.232Z,12.77
2022-12-25T07:37:22.471Z,7.40
2022-12-25T07:39:50.773Z,8.40
2022-12-25T07:42:24.805Z,8.20
2022-12-25T07:44:55.489Z,9.95
2022-12-25T07:47:23.603Z,8.90
2022-12-25T07:49:51.639Z,11.18
2022-12-25T07:52:19.679Z,4.90
2022-12-25T07:54:47.811Z,5.15
2022-12-25T07:57:15.814Z,5.00
2022-12-25T07:59:43.838Z,8.10
2022-12-25T08:02:12.182Z,10.27
2022-12-25T08:04:40.496Z,10.45
2022-12-25T08:07:27.611Z,12.27
2022-12-25T08:09:55.737Z,9.18
2022-12-25T08:12:23.970Z,5.07
2022-12-25T08:14:52.172Z,10.43
2022-12-25T08:17:20.246Z,7.57
2022-12-25T08:19:48.459Z,6.70
2022-12-25T08:22:16.557Z,6.20
2022-12-25T08:24:44.787Z,7.25
2022-12-25T08:27:12.827Z,12.63
2022-12-25T08:29:40.922Z,7.80
2022-12-25T08:32:09.017Z,6.30
2022-12-25T08:34:38.893Z,9.20
2022-12-25T08:37:06.909Z,9.57
2022-12-25T08:39:35.136Z,11.88
2022-12-25T08:42:03.271Z,12.18
2022-12-25T08:44:31.473Z,8.98
2022-12-25T08:46:59.479Z,15.23
2022-12-25T08:49:29.388Z,8.10
2022-12-25T08:51:57.820Z,7.40
2022-12-25T08:54:46.616Z,12.85
2022-12-25T08:57:14.715Z,8.95
2022-12-25T08:59:42.669Z,12.13
2022-12-25T09:02:12.636Z,13.02
2022-12-25T09:04:40.876Z,6.72
2022-12-25T09:07:08.845Z,15.40
2022-12-25T09:09:37.406Z,8.30
2022-12-25T09:12:05.692Z,9.23
2022-12-25T09:14:33.858Z,9.55
2022-12-25T09:17:01.960Z,19.98
2022-12-25T09:19:30.119Z,10.27
2022-12-25T09:21:58.205Z,9.15
2022-12-25T09:24:26.426Z,8.98
2022-12-25T09:26:54.575Z,5.93
2022-12-25T09:29:22.655Z,9.23
2022-12-25T09:31:50.732Z,9.10
2022-12-25T09:34:19.443Z,12.45
2022-12-25T09:36:47.756Z,16.45
2022-12-25T09:39:15.824Z,8.98
2022-12-25T09:42:01.853Z,9.77
2022-12-25T09:45:06.017Z,9.38
2022-12-25T09:47:38.607Z,14.32
2022-12-25T09:50:15.797Z,10.75
2022-12-25T09:53:03.210Z,15.93
2022-12-25T09:55:34.141Z,15.07
2022-12-25T09:58:09.978Z,11.73
2022-12-25T10:03:45.359Z,12.30
2022-12-25T10:09:03.408Z,14.75
2022-12-25T10:11:49.489Z,10.82
2022-12-25T10:14:29.525Z,12.82
2022-12-25T10:17:00.549Z,10.40
2022-12-25T10:19:29.884Z,11.93
2022-12-25T10:22:01.829Z,16.15
2022-12-25T10:24:50.051Z,15.73
2022-12-25T10:30:22.803Z,16.40
2022-12-25T10:32:51.964Z,13.00
2022-12-25T10:35:23.564Z,7.55
2022-12-25T10:38:00.066Z,13.13
2022-12-25T10:41:00.128Z,9.25
2022-12-25T10:43:47.718Z,11.70
2022-12-25T10:46:17.316Z,7.32
2022-12-25T10:48:51.320Z,10.88
2022-12-25T10:51:37.228Z,6.40
2022-12-25T10:54:23.731Z,12.60
2022-12-25T10:56:55.617Z,9.38
2022-12-25T10:59:29.036Z,12.77
2022-12-25T11:02:25.039Z,14.85
2022-12-25T11:05:10.255Z,14.75
2022-12-25T11:07:51.105Z,9.23
2022-12-25T11:10:44.365Z,9.93
2022-12-25T11:13:29.391Z,7.80
2022-12-25T11:16:15.733Z,15.30
2022-12-25T11:18:49.779Z,8.75
2022-12-25T11:21:24.142Z,11.73
2022-12-25T11:24:05.802Z,11.65
2022-12-25T11:26:47.943Z,8.80
2022-12-25T11:29:49.871Z,12.43
2022-12-25T11:32:46.769Z,9.50
2022-12-25T11:35:18.422Z,10.05
2022-12-25T11:37:49.676Z,10.00
2022-12-25T11:40:49.860Z,12.05
2022-12-25T11:43:36.713Z,10.75
2022-12-25T11:46:22.785Z,10.70
2022-12-25T11:48:57.704Z,15.77
2022-12-25T11:51:31.094Z,11.25
2022-12-25T11:54:31.179Z,7.70
2022-12-25T11:57:18.679Z,11.95
2022-12-25T11:59:56.459Z,9.82
2022-12-25T12:02:37.069Z,8.88
2022-12-25T12:05:29.916Z,10.00
2022-12-25T12:08:01.401Z,9.60
2022-12-25T12:11:16.180Z,7.15
2022-12-25T12:14:02.040Z,8.93
2022-12-25T12:16:30.492Z,11.43
2022-12-25T12:18:58.557Z,10.38
2022-12-25T12:21:29.280Z,9.85
2022-12-25T12:24:10.132Z,9.75
2022-12-25T12:29:54.953Z,7.72
2022-12-25T12:32:45.214Z,15.40
2022-12-25T12:35:40.289Z,6.57
2022-12-25T12:38:27.714Z,5.72
2022-12-25T12:41:00.874Z,11.02
2022-12-25T12:43:47.340Z,11.45
2022-12-25T12:46:31.432Z,8.60
2022-12-25T12:49:22.055Z,10.63
2022-12-25T12:52:42.973Z,10.88
2022-12-25T12:55:15.277Z,8.55
2022-12-25T12:58:04.409Z,8.40
2022-12-25T13:00:49.361Z,12.27
2022-12-25T13:03:57.543Z,10.93
2022-12-25T13:06:40.035Z,10.85
2022-12-25T13:09:29.539Z,7.43
2022-12-25T13:11:57.817Z,10.27
2022-12-25T13:14:25.903Z,14.10
2022-12-25T13:16:55.014Z,7.95
2022-12-25T13:19:28.846Z,12.98
2022-12-25T13:21:59.660Z,10.05
2022-12-25T13:24:35.658Z,8.25
2022-12-25T13:27:25.387Z,12.60
2022-12-25T13:29:53.468Z,11.25
2022-12-25T13:32:28.825Z,6.38
2022-12-25T13:34:57.242Z,4.32
2022-12-25T13:37:27.960Z,3.17
2022-12-25T13:40:00.302Z,4.22
2022-12-25T13:42:32.048Z,3.70
2022-12-25T13:45:19.981Z,6.00
2022-12-25T13:47:54.661Z,4.65
2022-12-25T13:50:28.253Z,2.40
2022-12-25T13:52:58.282Z,5.03
2022-12-25T13:55:28.519Z,9.20
2022-12-25T14:00:53.537Z,7.22
2022-12-25T14:03:40.374Z,5.03
2022-12-25T14:09:15.864Z,3.67
2022-12-25T14:11:49.318Z,4.13
2022-12-25T14:14:23.728Z,1.50
2022-12-25T14:16:55.555Z,2.78
2022-12-25T14:19:32.328Z,4.28
2022-12-25T14:22:11.087Z,2.22
2022-12-25T14:24:40.800Z,4.35
2022-12-25T14:27:28.594Z,5.93
2022-12-25T14:29:59.422Z,5.13
2022-12-25T14:32:38.548Z,4.25
2022-12-25T14:35:06.990Z,8.32
2022-12-25T14:37:37.360Z,6.28
2022-12-25T14:40:18.539Z,6.60
2022-12-25T14:43:02.033Z,7.15
2022-12-25T14:45:31.726Z,7.40
2022-12-25T14:48:21.235Z,5.00
2022-12-25T14:51:17.864Z,2.47
2022-12-25T14:53:53.478Z,2.17
2022-12-25T14:56:23.718Z,2.08
2022-12-25T14:58:56.983Z,6.05
2022-12-25T15:01:39.293Z,1.80
2022-12-25T15:04:18.200Z,4.47
2022-12-25T15:06:59.649Z,1.55
2022-12-25T15:09:30.283Z,6.80
2022-12-25T15:11:58.389Z,5.68
2022-12-25T15:14:27.321Z,3.88
2022-12-25T15:16:58.505Z,4.32
2022-12-25T15:19:37.992Z,3.92
2022-12-25T15:22:07.270Z,2.92
2022-12-25T15:24:35.964Z,2.78
2022-12-25T15:27:05.771Z,1.38
2022-12-25T15:32:24.335Z,2.67
2022-12-25T15:34:53.302Z,3.70
2022-12-25T15:37:21.463Z,3.53
2022-12-25T15:39:49.591Z,1.98
2022-12-25T15:42:21.736Z,0.85
2022-12-25T15:44:50.499Z,2.42
2022-12-25T15:47:20.359Z,4.80
2022-12-25T15:49:49.246Z,6.10
2022-12-25T15:52:18.371Z,7.70
2022-12-25T15:54:46.506Z,3.30
2022-12-25T15:57:20.885Z,2.70
2022-12-25T15:59:49.092Z,3.72
2022-12-25T16:02:20.483Z,3.42
2022-12-25T16:05:10.456Z,2.65
2022-12-25T16:10:11.540Z,4.13
2022-12-25T16:12:39.570Z,3.72
2022-12-25T16:15:26.739Z,5.38
2022-12-25T16:17:54.853Z,3.50
2022-12-25T16:20:22.781Z,4.35
2022-12-25T16:22:50.820Z,10.05
2022-12-25T16:25:19.973Z,2.03
2022-12-25T16:27:48.380Z,1.73
2022-12-25T16:30:18.336Z,1.50
2022-12-25T16:32:49.843Z,1.65
2022-12-25T16:38:04.135Z,3.10
2022-12-25T16:40:32.463Z,1.05
2022-12-25T16:43:00.777Z,2.42
2022-12-25T16:45:28.871Z,0.10
2022-12-25T16:47:57.806Z,0.85
2022-12-25T16:50:25.983Z,0.30
2022-12-25T16:52:54.035Z,0.47
2022-12-25T16:55:27.818Z,0.20
2022-12-25T16:57:57.970Z,0.65
2022-12-25T17:00:26.733Z,1.85
2022-12-25T17:02:56.299Z,0.08
2022-12-25T17:05:25.162Z,0.43
2022-12-25T17:07:53.161Z,1.00
2022-12-25T17:10:21.581Z,1.25
2022-12-25T17:12:49.702Z,0.57
2022-12-25T17:15:17.876Z,1.42
2022-12-25T17:17:45.790Z,0.73
2022-12-25T17:20:32.789Z,0.60
2022-12-25T17:23:00.920Z,0.80
2022-12-25T17:25:29.088Z,3.25
2022-12-25T17:27:57.267Z,1.92
2022-12-25T17:30:25.412Z,0.55
2022-12-25T17:32:55.386Z,0.57
2022-12-25T17:35:24.723Z,1.05
2022-12-25T17:37:52.647Z,4.20
2022-12-25T17:40:20.737Z,1.00
2022-12-25T17:42:48.945Z,1.83
2022-12-25T17:45:17.881Z,2.65
2022-12-25T17:47:45.902Z,0.57
2022-12-25T17:50:37.372Z,2.95
2022-12-25T17:53:09.120Z,1.05
2022-12-25T17:55:41.584Z,1.13
2022-12-25T17:58:09.610Z,1.67
2022-12-25T18:00:37.882Z,1.25
2022-12-25T18:03:11.553Z,2.00
2022-12-25T18:05:40.219Z,1.42
2022-12-25T18:08:08.364Z,1.25
2022-12-25T18:10:41.153Z,1.88
2022-12-25T18:13:10.719Z,2.65
2022-12-25T18:15:40.192Z,2.85
2022-12-25T18:18:09.084Z,1.88
2022-12-25T18:20:40.203Z,3.28
2022-12-25T18:23:09.549Z,2.80
2022-12-25T18:25:41.929Z,0.65
2022-12-25T18:28:11.114Z,2.17
2022-12-25T18:30:41.010Z,1.70
2022-12-25T18:33:28.522Z,2.05
2022-12-25T18:36:01.797Z,1.40
2022-12-25T18:38:30.076Z,3.10
2022-12-25T18:41:17.293Z,2.13
2022-12-25T18:46:30.684Z,3.25
2022-12-25T18:48:58.739Z,2.05
2022-12-25T18:51:33.153Z,1.85
2022-12-25T18:54:04.913Z,3.00
2022-12-25T18:56:33.011Z,4.10
2022-12-25T18:59:01.067Z,5.18
2022-12-25T19:01:29.582Z,3.38
2022-12-25T19:04:04.611Z,1.60
2022-12-25T19:06:33.800Z,2.55
2022-12-25T19:09:09.405Z,5.30
2022-12-25T19:11:45.951Z,4.93
2022-12-25T19:14:15.857Z,3.95
2022-12-25T19:16:44.053Z,2.60
2022-12-25T19:19:12.376Z,6.00
2022-12-25T19:21:41.079Z,3.85
2022-12-25T19:24:27.913Z,2.60
2022-12-25T19:26:55.971Z,2.55
2022-12-25T19:29:24.233Z,2.20
2022-12-25T19:31:52.502Z,1.45
2022-12-25T19:34:22.177Z,1.65
2022-12-25T19:36:51.561Z,2.38
2022-12-25T19:39:19.940Z,1.95
2022-12-25T19:41:48.773Z,0.85
2022-12-25T19:44:16.880Z,1.48
2022-12-25T19:46:45.010Z,3.20
2022-12-25T19:49:14.166Z,3.50
2022-12-25T19:51:45.505Z,2.42
2022-12-25T19:54:16.158Z,2.20
2022-12-25T19:56:44.315Z,3.40
2022-12-25T19:59:14.901Z,2.38
2022-12-25T20:01:43.348Z,0.90
2022-12-25T20:04:11.630Z,0.50
2022-12-25T20:06:42.919Z,0.85
2022-12-25T20:09:20.717Z,0.43
2022-12-25T20:14:56.462Z,0.28
2022-12-25T20:17:24.582Z,0.20
2022-12-25T20:19:52.868Z,0.70
2022-12-25T20:22:21.086Z,0.63
2022-12-25T20:24:49.528Z,1.13
2022-12-25T20:27:17.548Z,2.50
2022-12-25T20:29:45.871Z,0.57
2022-12-25T20:32:14.569Z,1.30
2022-12-25T20:34:42.712Z,2.20
2022-12-25T20:37:10.900Z,1.05
2022-12-25T20:39:39.102Z,2.88
2022-12-25T20:42:08.227Z,1.98
2022-12-25T20:44:55.096Z,1.63
2022-12-25T20:47:23.316Z,0.47
2022-12-25T20:49:51.309Z,1.75
2022-12-25T20:52:19.465Z,0.55
2022-12-25T20:54:48.002Z,0.35
2022-12-25T20:57:16.050Z,1.35
2022-12-25T20:59:44.203Z,2.05
2022-12-25T21:02:35.097Z,2.80
2022-12-25T21:05:00.758Z,1.58
2022-12-25T21:07:28.877Z,0.28
2022-12-25T21:09:57.187Z,4.00
2022-12-25T21:12:25.849Z,0.70
2022-12-25T21:14:53.840Z,1.27
2022-12-25T21:17:21.989Z,0.70
2022-12-25T21:19:50.742Z,1.38
2022-12-25T21:22:18.832Z,1.48
2022-12-25T21:24:52.144Z,0.65
2022-12-25T21:27:20.373Z,1.48
2022-12-25T21:29:48.411Z,1.15
2022-12-25T21:32:42.608Z,0.28
2022-12-25T21:35:10.680Z,1.15
2022-12-25T21:37:38.670Z,3.05
2022-12-25T21:40:10.119Z,0.60
2022-12-25T21:42:42.595Z,0.88
2022-12-25T21:45:10.829Z,2.22
2022-12-25T21:48:00.269Z,1.42
2022-12-25T21:50:45.702Z,1.73
2022-12-25T21:53:18.530Z,1.73
2022-12-25T21:55:57.678Z,0.73
2022-12-25T22:01:12.099Z,1.27
2022-12-25T22:03:40.209Z,0.93
2022-12-25T22:06:26.854Z,1.02
2022-12-25T22:08:55.131Z,0.93
2022-12-25T22:11:45.591Z,2.15
2022-12-25T22:14:51.195Z,2.38
2022-12-25T22:17:45.597Z,3.40
2022-12-25T22:20:20.037Z,1.88
2022-12-25T22:22:48.594Z,0.30
2022-12-25T22:25:17.770Z,0.98
2022-12-25T22:27:47.011Z,2.05
2022-12-25T22:30:18.178Z,1.08
2022-12-25T22:33:04.887Z,4.13
2022-12-25T22:35:33.236Z,3.65
2022-12-25T22:38:19.655Z,1.85
2022-12-25T22:40:47.817Z,3.05
2022-12-25T22:43:15.908Z,4.47
2022-12-25T22:45:44.131Z,2.80
2022-12-25T22:48:12.374Z,5.47
2022-12-25T22:50:40.656Z,2.88
2022-12-25T22:53:08.761Z,2.40
2022-12-25T22:55:37.039Z,2.55
2022-12-25T22:58:05.684Z,3.47
2022-12-25T23:00:33.941Z,0.85
2022-12-25T23:03:02.277Z,2.42
2022-12-25T23:05:30.472Z,1.33
2022-12-25T23:07:58.717Z,2.63
2022-12-25T23:10:27.086Z,0.77
2022-12-25T23:13:18.424Z,1.00
2022-12-25T23:15:47.664Z,0.60
2022-12-25T23:18:34.484Z,1.23
2022-12-25T23:21:40.353Z,2.35
2022-12-25T23:24:28.458Z,2.63
2022-12-25T23:26:56.943Z,0.82
2022-12-25T23:29:37.753Z,0.45
2022-12-25T23:32:11.820Z,1.05
2022-12-25T23:34:41.861Z,2.70
2022-12-25T23:37:11.177Z,4.28
2022-12-25T23:39:41.710Z,1.25
2022-12-25T23:42:09.959Z,0.28
2022-12-25T23:44:38.439Z,0.13
2022-12-25T23:47:06.681Z,1.17
2022-12-25T23:52:38.485Z,0.32
2022-12-25T23:55:07.509Z,0.30
2022-12-25T23:57:35.725Z,0.10
